CheckWX is a tool to help pilots better visualize weather data.  It is not intended as a substitute for an official pre-flight weather briefing.

17:56:35 UTC

EDVE TAF
Braunschweig Wolfsburg Airport
Germany
TAF EDVE 171700Z 1718/1721 VRB02KT 9999 BKN040 TEMPO 1719/1721 4000 RADZ BKN012

Oct-17@
18:00 UTC

Oct-17 @ 18:00 UTC

Oct-17@
21:00 UTC

Oct-17 @ 21:00 UTC

TAF EDVE 171700Z 1718/1721 VRB02KT 9999 BKN040
Wind
  • Variable at 2 KTS
Cloud Levels
  • Broken at 4,000' AGL

Oct-17@
19:00 UTC

Oct-17 @ 19:00 UTC

Oct-17@
21:00 UTC

Oct-17 @ 21:00 UTC

TEMPO 1719/1721 4000 RADZ BKN012

Temporary

Temporary Changes expected for less than half the time period

Conditions
Rain, Drizzle
Cloud Levels
  • Broken at 1,200' AGL